createdAt,value
2019-03-28T00:00:04.685Z,9.47
2019-03-28T00:02:33.040Z,8.43
2019-03-28T00:05:01.295Z,8.97
2019-03-28T00:07:29.560Z,8.40
2019-03-28T00:09:57.836Z,8.87
2019-03-28T00:12:28.100Z,9.47
2019-03-28T00:14:56.542Z,7.97
2019-03-28T00:17:24.798Z,9.10
2019-03-28T00:19:53.079Z,9.30
2019-03-28T00:22:23.122Z,9.10
2019-03-28T00:24:58.713Z,9.80
2019-03-28T00:27:26.997Z,8.77
2019-03-28T00:29:55.258Z,10.30
2019-03-28T00:32:23.554Z,8.70
2019-03-28T00:34:51.821Z,9.53
2019-03-28T00:37:20.101Z,9.40
2019-03-28T00:39:49.913Z,9.10
2019-03-28T00:42:19.966Z,9.27
2019-03-28T00:44:48.294Z,8.93
2019-03-28T00:47:16.619Z,9.70
2019-03-28T00:49:45.739Z,9.30
2019-03-28T00:52:14.010Z,10.33
2019-03-28T00:54:42.314Z,9.50
2019-03-28T00:57:10.571Z,10.30
2019-03-28T00:59:38.861Z,9.97
2019-03-28T01:02:07.134Z,10.13
2019-03-28T01:04:35.436Z,10.40
2019-03-28T01:07:03.712Z,9.80
2019-03-28T01:09:32.000Z,10.47
2019-03-28T01:12:00.279Z,10.30
2019-03-28T01:14:28.620Z,9.70
2019-03-28T01:16:56.907Z,10.03
2019-03-28T01:19:25.159Z,12.40
2019-03-28T01:21:53.423Z,11.73
2019-03-28T01:24:21.777Z,10.70
2019-03-28T01:26:57.245Z,13.47
2019-03-28T01:29:20.053Z,12.03
2019-03-28T01:31:48.332Z,11.67
2019-03-28T01:34:16.619Z,11.73
2019-03-28T01:36:44.869Z,12.00
2019-03-28T01:39:13.138Z,12.90
2019-03-28T01:41:41.397Z,12.60
2019-03-28T01:44:09.665Z,12.50
2019-03-28T01:46:37.961Z,12.73
2019-03-28T01:49:06.214Z,11.10
2019-03-28T01:51:34.493Z,13.40
2019-03-28T01:54:03.332Z,13.30
2019-03-28T01:56:31.741Z,13.23
2019-03-28T01:59:00.045Z,13.40
2019-03-28T02:01:28.298Z,13.63
2019-03-28T02:03:56.602Z,13.30
2019-03-28T02:06:24.906Z,14.30
2019-03-28T02:08:53.170Z,14.20
2019-03-28T02:11:21.447Z,15.17
2019-03-28T02:13:49.721Z,14.67
2019-03-28T02:16:18.012Z,14.20
2019-03-28T02:18:46.275Z,14.80
2019-03-28T02:21:14.578Z,15.37
2019-03-28T02:23:42.852Z,15.73
2019-03-28T02:26:11.170Z,15.47
2019-03-28T02:28:39.436Z,15.90
2019-03-28T02:31:07.722Z,16.53
2019-03-28T02:33:35.993Z,16.23
2019-03-28T02:36:04.291Z,15.20
2019-03-28T02:38:32.645Z,16.33
2019-03-28T02:41:00.906Z,15.80
2019-03-28T02:43:29.195Z,16.80
2019-03-28T02:45:57.480Z,15.53
2019-03-28T02:48:25.778Z,15.20
2019-03-28T02:50:54.056Z,16.80
2019-03-28T02:53:22.349Z,14.43
2019-03-28T02:55:50.608Z,15.17
2019-03-28T02:58:18.876Z,16.87
2019-03-28T03:00:48.107Z,15.97
2019-03-28T03:03:16.624Z,16.27
2019-03-28T03:05:44.882Z,15.83
2019-03-28T03:08:13.241Z,16.80
2019-03-28T03:10:41.502Z,16.73
2019-03-28T03:13:09.786Z,16.90
2019-03-28T03:15:38.038Z,17.73
2019-03-28T03:18:06.327Z,17.63
2019-03-28T03:20:34.589Z,17.40
2019-03-28T03:23:02.874Z,17.30
2019-03-28T03:25:31.131Z,18.07
2019-03-28T03:27:59.596Z,18.30
2019-03-28T03:30:27.881Z,18.80
2019-03-28T03:32:56.161Z,18.77
2019-03-28T03:35:24.779Z,17.40
2019-03-28T03:37:53.154Z,16.90
2019-03-28T03:40:21.496Z,17.97
2019-03-28T03:42:49.804Z,19.30
2019-03-28T03:45:18.057Z,19.83
2019-03-28T03:47:46.324Z,19.03
2019-03-28T03:50:17.787Z,18.97
2019-03-28T03:52:46.059Z,19.00
2019-03-28T03:55:14.324Z,18.20
2019-03-28T03:57:42.613Z,19.60
2019-03-28T04:00:10.949Z,19.90
2019-03-28T04:02:39.231Z,18.33
2019-03-28T04:05:07.938Z,20.70
2019-03-28T04:07:36.195Z,20.80
2019-03-28T04:10:05.716Z,18.97
2019-03-28T04:12:33.999Z,18.00
2019-03-28T04:15:02.275Z,20.40
2019-03-28T04:17:30.535Z,19.63
2019-03-28T04:19:58.981Z,18.37
2019-03-28T04:22:27.170Z,19.20
2019-03-28T04:24:55.426Z,17.40
2019-03-28T04:27:25.383Z,18.70
2019-03-28T04:29:53.629Z,20.00
2019-03-28T04:32:21.897Z,18.50
2019-03-28T04:34:50.167Z,18.87
2019-03-28T04:37:18.441Z,18.80
2019-03-28T04:39:46.701Z,19.90
2019-03-28T04:42:14.977Z,18.47
2019-03-28T04:44:43.270Z,20.20
2019-03-28T04:47:11.540Z,19.07
2019-03-28T04:49:39.821Z,20.20
2019-03-28T04:52:08.099Z,18.50
2019-03-28T04:54:36.441Z,20.27
2019-03-28T04:57:04.737Z,18.60
2019-03-28T04:59:32.995Z,19.83
2019-03-28T05:02:03.695Z,19.90
2019-03-28T05:04:31.253Z,18.90
2019-03-28T05:06:59.543Z,21.17
2019-03-28T05:09:27.801Z,21.00
2019-03-28T05:11:56.137Z,20.13
2019-03-28T05:14:24.473Z,20.33
2019-03-28T05:16:52.734Z,20.47
2019-03-28T05:19:21.011Z,19.07
2019-03-28T05:21:49.266Z,19.07
2019-03-28T05:24:17.534Z,21.27
2019-03-28T05:26:45.810Z,20.07
2019-03-28T05:29:14.089Z,19.40
2019-03-28T05:31:42.391Z,19.70
2019-03-28T05:34:10.644Z,20.50
2019-03-28T05:36:38.923Z,19.03
2019-03-28T05:39:07.261Z,17.87
2019-03-28T05:41:35.565Z,18.90
2019-03-28T05:44:03.895Z,17.57
2019-03-28T05:46:32.165Z,19.07
2019-03-28T05:49:00.455Z,17.93
2019-03-28T05:51:28.717Z,16.80
2019-03-28T05:53:57.011Z,18.40
2019-03-28T05:56:25.284Z,21.13
2019-03-28T05:58:54.171Z,18.90
2019-03-28T06:01:22.594Z,20.00
2019-03-28T06:03:50.872Z,19.70
2019-03-28T06:06:19.139Z,20.67
2019-03-28T06:08:47.428Z,19.17
2019-03-28T06:11:15.705Z,19.27
2019-03-28T06:13:43.962Z,19.67
2019-03-28T06:16:12.250Z,20.77
2019-03-28T06:18:40.531Z,20.50
2019-03-28T06:21:08.801Z,20.53
2019-03-28T06:23:37.085Z,19.70
2019-03-28T06:26:05.370Z,18.47
2019-03-28T06:28:33.647Z,20.30
2019-03-28T06:31:01.927Z,21.07
2019-03-28T06:33:30.203Z,21.67
2019-03-28T06:35:58.469Z,19.73
2019-03-28T06:38:26.746Z,19.30
2019-03-28T06:40:55.002Z,21.37
2019-03-28T06:43:23.278Z,21.07
2019-03-28T06:45:51.534Z,23.47
2019-03-28T06:48:19.808Z,21.93
2019-03-28T06:50:48.092Z,23.33
2019-03-28T06:53:16.370Z,22.93
2019-03-28T06:55:44.634Z,21.50
2019-03-28T06:58:12.974Z,22.43
2019-03-28T07:00:41.242Z,22.40
2019-03-28T07:03:09.506Z,22.40
2019-03-28T07:05:37.790Z,20.33
2019-03-28T07:08:06.059Z,21.73
2019-03-28T07:10:34.331Z,24.37
2019-03-28T07:13:02.615Z,21.80
2019-03-28T07:15:30.913Z,22.40
2019-03-28T07:17:59.170Z,22.40
2019-03-28T07:20:27.445Z,22.40
2019-03-28T07:22:55.730Z,22.73
2019-03-28T07:25:25.536Z,21.93
2019-03-28T07:27:54.061Z,21.87
2019-03-28T07:30:22.414Z,21.10
2019-03-28T07:32:50.679Z,22.23
2019-03-28T07:35:18.951Z,19.70
2019-03-28T07:37:47.208Z,21.47
2019-03-28T07:40:15.735Z,22.27
2019-03-28T07:42:47.183Z,21.70
2019-03-28T07:45:19.941Z,21.53
2019-03-28T07:47:48.294Z,22.00
2019-03-28T07:50:16.732Z,25.63
2019-03-28T07:52:45.074Z,22.30
2019-03-28T07:55:16.296Z,22.40
2019-03-28T07:57:43.509Z,20.60
2019-03-28T08:00:12.249Z,20.60
2019-03-28T08:02:40.631Z,22.57
2019-03-28T08:05:10.181Z,22.73
2019-03-28T08:07:44.766Z,23.87
2019-03-28T08:10:09.921Z,20.90
2019-03-28T08:12:38.257Z,20.50
2019-03-28T08:15:09.483Z,22.47
2019-03-28T08:17:37.755Z,20.60
2019-03-28T08:20:10.909Z,21.50
2019-03-28T08:22:39.190Z,20.00
2019-03-28T08:25:11.714Z,20.77
2019-03-28T08:30:40.010Z,21.50
2019-03-28T08:33:09.074Z,21.00
2019-03-28T08:35:37.895Z,19.90
2019-03-28T08:38:09.777Z,21.00
2019-03-28T08:40:40.067Z,22.47
2019-03-28T08:43:08.551Z,20.33
2019-03-28T08:45:36.815Z,18.93
2019-03-28T08:48:05.372Z,21.47
2019-03-28T08:50:33.674Z,18.87
2019-03-28T08:53:01.932Z,18.50
2019-03-28T08:55:30.258Z,19.20
2019-03-28T08:57:58.546Z,19.40
2019-03-28T09:00:33.191Z,19.63
2019-03-28T09:02:56.916Z,19.90
2019-03-28T09:05:25.173Z,18.50
2019-03-28T09:07:53.466Z,19.40
2019-03-28T09:10:21.842Z,18.80
2019-03-28T09:12:50.151Z,20.30
2019-03-28T09:15:18.499Z,18.70
2019-03-28T09:17:46.771Z,20.87
2019-03-28T09:20:15.140Z,19.10
2019-03-28T09:22:43.421Z,17.57
2019-03-28T09:25:12.477Z,18.97
2019-03-28T09:27:40.911Z,19.07
2019-03-28T09:30:10.067Z,18.90
2019-03-28T09:32:38.417Z,18.87
2019-03-28T09:35:07.439Z,19.70
2019-03-28T09:37:35.714Z,17.50
2019-03-28T09:40:05.039Z,19.13
2019-03-28T09:42:34.428Z,18.10
2019-03-28T09:45:03.170Z,19.13
2019-03-28T09:47:31.479Z,16.67
2019-03-28T09:49:59.755Z,15.60
2019-03-28T09:52:28.033Z,16.00
2019-03-28T09:54:56.307Z,15.30
2019-03-28T09:57:26.213Z,14.43
2019-03-28T09:59:54.484Z,15.00
2019-03-28T10:02:22.751Z,16.20
2019-03-28T10:04:51.021Z,14.60
2019-03-28T10:07:19.323Z,15.43
2019-03-28T10:09:47.662Z,14.37
2019-03-28T10:12:15.871Z,14.10
2019-03-28T10:14:44.143Z,16.87
2019-03-28T10:17:12.433Z,15.73
2019-03-28T10:19:40.699Z,14.50
2019-03-28T10:22:08.989Z,13.80
2019-03-28T10:24:37.261Z,15.10
2019-03-28T10:27:05.537Z,13.80
2019-03-28T10:29:33.802Z,14.27
2019-03-28T10:32:02.143Z,13.30
2019-03-28T10:34:30.445Z,14.50
2019-03-28T10:36:58.767Z,13.53
2019-03-28T10:39:27.049Z,14.83
2019-03-28T10:41:55.339Z,12.40
2019-03-28T10:44:23.611Z,13.83
2019-03-28T10:46:51.888Z,15.40
2019-03-28T10:49:20.166Z,14.43
2019-03-28T10:51:48.458Z,13.90
2019-03-28T10:54:20.467Z,13.20
2019-03-28T10:56:52.011Z,12.97
2019-03-28T10:59:23.567Z,12.13
2019-03-28T11:01:50.564Z,11.40
2019-03-28T11:04:16.810Z,11.40
2019-03-28T11:06:45.068Z,10.97
2019-03-28T11:09:13.446Z,10.30
2019-03-28T11:11:41.673Z,9.70
2019-03-28T11:14:09.971Z,11.27
2019-03-28T11:16:38.318Z,11.23
2019-03-28T11:19:06.604Z,10.50
2019-03-28T11:21:35.121Z,11.07
2019-03-28T11:24:03.399Z,10.37
2019-03-28T11:26:31.759Z,11.37
2019-03-28T11:29:01.077Z,10.87
2019-03-28T11:31:29.505Z,9.70
2019-03-28T11:33:57.813Z,10.10
2019-03-28T11:36:26.088Z,10.13
2019-03-28T11:38:54.957Z,9.50
2019-03-28T11:41:23.431Z,8.47
2019-03-28T11:43:51.699Z,8.50
2019-03-28T11:46:19.979Z,8.20
2019-03-28T11:48:48.244Z,7.90
2019-03-28T11:51:16.550Z,7.00
2019-03-28T11:53:44.836Z,6.90
2019-03-28T11:56:13.113Z,6.60
2019-03-28T11:58:41.364Z,7.50
2019-03-28T12:01:09.631Z,5.40
2019-03-28T12:03:37.923Z,7.17
2019-03-28T12:06:06.206Z,5.10
2019-03-28T12:08:34.471Z,5.60
2019-03-28T12:11:02.768Z,6.87
2019-03-28T12:13:39.107Z,6.17
2019-03-28T12:16:01.029Z,5.43
2019-03-28T12:18:29.287Z,6.53
2019-03-28T12:20:57.560Z,6.17
2019-03-28T12:23:25.821Z,6.30
2019-03-28T12:25:54.097Z,5.40
2019-03-28T12:28:22.372Z,5.60
2019-03-28T12:30:50.665Z,4.83
2019-03-28T12:33:18.921Z,4.10
2019-03-28T12:35:47.197Z,4.67
2019-03-28T12:38:15.462Z,7.40
2019-03-28T12:40:43.736Z,6.53
2019-03-28T12:43:11.991Z,6.80
2019-03-28T12:45:40.263Z,6.80
2019-03-28T12:48:08.531Z,7.50
2019-03-28T12:50:36.802Z,8.13
2019-03-28T12:53:05.189Z,7.90
2019-03-28T12:55:33.656Z,7.23
2019-03-28T12:58:01.924Z,6.60
2019-03-28T13:00:35.471Z,7.90
2019-03-28T13:03:03.833Z,6.53
2019-03-28T13:05:34.742Z,8.13
2019-03-28T13:08:06.323Z,8.40
2019-03-28T13:10:34.600Z,7.40
2019-03-28T13:13:03.836Z,7.93
2019-03-28T13:15:32.416Z,6.57
2019-03-28T13:18:00.696Z,7.40
2019-03-28T13:20:28.971Z,7.67
2019-03-28T13:22:57.238Z,8.27
2019-03-28T13:25:25.513Z,6.90
2019-03-28T13:27:53.801Z,7.03
2019-03-28T13:30:22.058Z,7.67
2019-03-28T13:32:50.315Z,8.10
2019-03-28T13:35:18.592Z,7.70
2019-03-28T13:37:46.910Z,7.27
2019-03-28T13:40:15.253Z,5.97
2019-03-28T13:42:43.512Z,6.70
2019-03-28T13:45:12.326Z,6.63
2019-03-28T13:47:40.596Z,6.20
2019-03-28T13:50:10.350Z,6.60
2019-03-28T13:52:38.728Z,7.23
2019-03-28T13:55:07.842Z,6.77
2019-03-28T13:57:36.122Z,6.30
2019-03-28T14:00:06.295Z,6.73
2019-03-28T14:02:34.831Z,6.83
2019-03-28T14:05:03.093Z,7.20
2019-03-28T14:07:31.369Z,5.33
2019-03-28T14:09:59.657Z,6.97
2019-03-28T14:12:27.946Z,5.80
2019-03-28T14:14:56.219Z,5.80
2019-03-28T14:17:24.504Z,4.80
2019-03-28T14:19:52.771Z,5.00
2019-03-28T14:22:21.021Z,4.53
2019-03-28T14:24:50.939Z,4.17
2019-03-28T14:27:19.208Z,5.20
2019-03-28T14:29:47.480Z,4.30
2019-03-28T14:32:15.743Z,4.10
2019-03-28T14:34:44.122Z,4.63
2019-03-28T14:37:12.410Z,4.73
2019-03-28T14:39:40.696Z,4.70
2019-03-28T14:42:09.013Z,4.40
2019-03-28T14:44:37.285Z,5.03
2019-03-28T14:47:05.542Z,4.90
2019-03-28T14:49:33.903Z,4.90
2019-03-28T14:52:03.211Z,3.90
2019-03-28T14:54:31.477Z,4.20
2019-03-28T14:57:00.866Z,4.13
2019-03-28T14:59:32.809Z,3.93
2019-03-28T15:01:59.456Z,4.13
2019-03-28T15:04:27.738Z,4.20
2019-03-28T15:06:55.998Z,3.77
2019-03-28T15:09:24.284Z,3.30
2019-03-28T15:11:52.545Z,3.70
2019-03-28T15:14:20.840Z,3.70
2019-03-28T15:16:49.121Z,3.40
2019-03-28T15:19:17.409Z,3.33
2019-03-28T15:21:45.663Z,2.70
2019-03-28T15:24:13.954Z,2.90
2019-03-28T15:26:42.324Z,2.63
2019-03-28T15:29:10.668Z,2.90
2019-03-28T15:31:38.999Z,3.77
2019-03-28T15:34:07.315Z,3.07
2019-03-28T15:36:35.595Z,3.27
2019-03-28T15:39:05.762Z,3.73
2019-03-28T15:41:35.159Z,4.27
2019-03-28T15:44:03.436Z,3.40
2019-03-28T15:46:31.712Z,3.70
2019-03-28T15:49:00.076Z,5.87
2019-03-28T15:51:28.343Z,4.53
2019-03-28T15:53:56.619Z,4.73
2019-03-28T15:56:24.894Z,4.90
2019-03-28T15:58:53.174Z,4.03
2019-03-28T16:01:21.451Z,4.30
2019-03-28T16:03:53.058Z,4.03
2019-03-28T16:06:22.329Z,4.20
2019-03-28T16:08:49.743Z,4.23
2019-03-28T16:11:18.028Z,3.60
2019-03-28T16:13:46.378Z,3.83
2019-03-28T16:16:14.659Z,3.47
2019-03-28T16:18:42.937Z,3.40
2019-03-28T16:21:11.197Z,3.90
2019-03-28T16:23:39.493Z,3.90
2019-03-28T16:26:07.763Z,3.63
2019-03-28T16:28:36.051Z,4.10
2019-03-28T16:31:04.325Z,3.80
2019-03-28T16:33:32.575Z,3.83
2019-03-28T16:36:00.842Z,3.30
2019-03-28T16:38:29.110Z,4.20
2019-03-28T16:40:57.857Z,3.53
2019-03-28T16:43:26.216Z,4.10
2019-03-28T16:45:54.479Z,3.60
2019-03-28T16:48:22.748Z,3.53
2019-03-28T16:50:51.019Z,3.83
2019-03-28T16:53:19.384Z,4.00
2019-03-28T16:55:47.682Z,3.83
2019-03-28T16:58:15.955Z,4.50
2019-03-28T17:00:44.237Z,4.63
2019-03-28T17:03:12.512Z,3.97
2019-03-28T17:05:41.642Z,4.40
2019-03-28T17:08:10.308Z,4.27
2019-03-28T17:10:45.976Z,4.10
2019-03-28T17:13:15.087Z,4.27
2019-03-28T17:15:43.356Z,4.37
2019-03-28T17:18:11.713Z,4.47
2019-03-28T17:20:40.726Z,4.30
2019-03-28T17:23:09.079Z,4.30
2019-03-28T17:25:37.325Z,3.40
2019-03-28T17:28:05.593Z,3.60
2019-03-28T17:30:33.854Z,4.10
2019-03-28T17:33:02.137Z,4.23
2019-03-28T17:35:30.398Z,4.10
2019-03-28T17:37:58.807Z,6.67
2019-03-28T17:40:27.068Z,4.27
2019-03-28T17:42:55.353Z,3.80
2019-03-28T17:45:23.713Z,4.30
2019-03-28T17:47:52.014Z,4.67
2019-03-28T17:50:20.287Z,4.27
2019-03-28T17:52:48.591Z,4.70
2019-03-28T17:55:19.611Z,4.40
2019-03-28T17:57:46.969Z,5.03
2019-03-28T18:00:15.291Z,4.30
2019-03-28T18:02:43.570Z,4.10
2019-03-28T18:05:15.571Z,4.77
2019-03-28T18:07:41.912Z,4.23
2019-03-28T18:10:10.425Z,4.10
2019-03-28T18:12:39.651Z,10.30
2019-03-28T18:15:08.195Z,4.27
2019-03-28T18:17:36.493Z,4.13
2019-03-28T18:20:06.730Z,4.70
2019-03-28T18:22:34.988Z,4.47
2019-03-28T18:25:03.794Z,4.20
2019-03-28T18:27:32.063Z,4.10
2019-03-28T18:30:00.367Z,4.50
2019-03-28T18:32:28.647Z,4.30
2019-03-28T18:35:05.023Z,4.43
2019-03-28T18:37:26.933Z,4.57
2019-03-28T18:39:55.220Z,4.23
2019-03-28T18:42:23.504Z,4.20
2019-03-28T18:44:51.800Z,4.23
2019-03-28T18:47:20.064Z,4.07
2019-03-28T18:49:48.328Z,4.20
2019-03-28T18:52:16.605Z,5.03
2019-03-28T18:54:44.897Z,4.93
2019-03-28T18:57:13.723Z,4.83
2019-03-28T18:59:42.208Z,4.53
2019-03-28T19:02:10.507Z,5.50
2019-03-28T19:04:38.780Z,5.20
2019-03-28T19:07:07.040Z,6.13
2019-03-28T19:09:35.344Z,5.40
2019-03-28T19:12:03.612Z,5.80
2019-03-28T19:14:32.002Z,10.10
2019-03-28T19:17:00.229Z,5.83
2019-03-28T19:19:38.838Z,5.93
2019-03-28T19:21:58.486Z,7.47
2019-03-28T19:24:26.765Z,6.93
2019-03-28T19:26:55.028Z,6.53
2019-03-28T19:29:23.307Z,6.80
2019-03-28T19:31:51.573Z,7.57
2019-03-28T19:34:19.852Z,6.50
2019-03-28T19:36:48.189Z,7.73
2019-03-28T19:39:19.638Z,7.63
2019-03-28T19:41:48.989Z,7.20
2019-03-28T19:44:17.252Z,8.10
2019-03-28T19:46:45.527Z,8.50
2019-03-28T19:49:13.805Z,8.60
2019-03-28T19:51:42.080Z,8.47
2019-03-28T19:54:10.360Z,7.53
2019-03-28T19:56:38.622Z,8.07
2019-03-28T19:59:06.934Z,9.27
2019-03-28T20:01:35.748Z,8.37
2019-03-28T20:04:03.999Z,8.97
2019-03-28T20:06:32.269Z,9.20
2019-03-28T20:09:00.528Z,9.60
2019-03-28T20:11:28.886Z,9.37
2019-03-28T20:13:57.176Z,10.23
2019-03-28T20:16:25.951Z,9.10
2019-03-28T20:18:54.551Z,9.00
2019-03-28T20:21:22.909Z,9.40
2019-03-28T20:23:51.217Z,9.60
2019-03-28T20:26:19.976Z,8.70
2019-03-28T20:28:48.351Z,9.07
2019-03-28T20:31:16.649Z,10.50
2019-03-28T20:33:44.905Z,9.60
2019-03-28T20:36:36.328Z,8.93
2019-03-28T20:38:44.807Z,9.53
2019-03-28T20:41:13.244Z,9.67
2019-03-28T20:43:41.500Z,9.73
2019-03-28T20:46:09.856Z,9.30
2019-03-28T20:48:38.828Z,9.40
2019-03-28T20:51:07.476Z,9.70
2019-03-28T20:53:35.753Z,10.50
2019-03-28T20:56:04.163Z,10.70
2019-03-28T20:58:32.461Z,13.97
2019-03-28T21:01:00.734Z,22.40
2019-03-28T21:03:29.102Z,10.67
2019-03-28T21:05:58.146Z,10.80
2019-03-28T21:08:26.512Z,10.20
2019-03-28T21:10:54.860Z,10.30
2019-03-28T21:13:23.174Z,9.20
2019-03-28T21:15:51.432Z,9.60
2019-03-28T21:18:19.704Z,10.97
2019-03-28T21:20:47.964Z,9.57
2019-03-28T21:23:16.238Z,10.63
2019-03-28T21:25:44.581Z,9.50
2019-03-28T21:28:14.003Z,9.90
2019-03-28T21:30:47.623Z,10.47
2019-03-28T21:33:15.027Z,9.47
2019-03-28T21:35:42.528Z,10.33
2019-03-28T21:38:10.889Z,9.50
2019-03-28T21:40:39.174Z,9.53
2019-03-28T21:43:07.498Z,9.87
2019-03-28T21:45:35.788Z,9.87
2019-03-28T21:48:04.257Z,20.10
2019-03-28T21:50:32.537Z,10.93
2019-03-28T21:53:00.787Z,9.87
2019-03-28T21:55:29.077Z,11.13
2019-03-28T21:57:57.412Z,10.27
2019-03-28T22:00:25.712Z,10.00
2019-03-28T22:02:53.986Z,9.50
2019-03-28T22:05:22.262Z,9.37
2019-03-28T22:07:50.569Z,10.20
2019-03-28T22:10:18.840Z,9.90
2019-03-28T22:12:47.111Z,10.60
2019-03-28T22:15:15.423Z,10.80
2019-03-28T22:17:43.714Z,9.80
2019-03-28T22:20:12.324Z,10.10
2019-03-28T22:22:43.396Z,10.40
2019-03-28T22:25:10.680Z,9.90
2019-03-28T22:27:38.945Z,10.53
2019-03-28T22:30:08.362Z,9.80
2019-03-28T22:32:36.690Z,9.87
2019-03-28T22:35:07.013Z,9.60
2019-03-28T22:37:35.349Z,9.50
2019-03-28T22:40:05.686Z,8.80
2019-03-28T22:42:34.017Z,9.23
2019-03-28T22:45:02.298Z,10.40
2019-03-28T22:47:33.794Z,9.67
2019-03-28T22:50:00.544Z,10.13
2019-03-28T22:52:28.832Z,9.10
2019-03-28T22:54:57.105Z,9.67
2019-03-28T22:57:25.375Z,9.87
2019-03-28T22:59:53.700Z,10.00
2019-03-28T23:02:21.966Z,10.10
2019-03-28T23:04:53.277Z,10.10
2019-03-28T23:07:23.325Z,10.47
2019-03-28T23:09:51.606Z,10.03
2019-03-28T23:12:19.884Z,10.60
2019-03-28T23:14:48.161Z,10.67
2019-03-28T23:17:16.450Z,10.83
2019-03-28T23:19:44.702Z,10.53
2019-03-28T23:22:12.995Z,10.13
2019-03-28T23:24:44.432Z,9.60
2019-03-28T23:27:12.686Z,8.90
2019-03-28T23:29:42.603Z,9.87
2019-03-28T23:32:11.162Z,11.03
2019-03-28T23:34:39.530Z,10.67
2019-03-28T23:37:07.875Z,21.80
2019-03-28T23:39:36.126Z,11.90
2019-03-28T23:42:04.436Z,9.87
2019-03-28T23:44:32.740Z,10.57
2019-03-28T23:47:01.007Z,10.60
2019-03-28T23:49:29.273Z,9.87
2019-03-28T23:51:57.585Z,10.13
2019-03-28T23:54:26.827Z,10.33
2019-03-28T23:56:55.244Z,10.90
2019-03-28T23:59:23.533Z,11.00
